Time;durP1;ratioP1;P1;durP2;ratioP2;P2;SDS_P1;SDS_P2;PMS_P1;PMS_P2;Temp;Humidity;BMP_temperature;BMP_pressure;BME280_temperature;BME280_humidity;BME280_pressure;Samples;Min_cycle;Max_cycle;Signal;HPM_P1;HPM_P2
2024/04/16 00:03:37;;;;;;;;;;;;;;;;;;;;;
2024/04/16 00:06:43;;;;;;;;;15.50;13.75;;;;;19.12;52.57;100553.94;146595;564;46016;-67
2024/04/16 00:09:48;;;;;;;;;12.25;12.00;;;;;19.11;53.48;100552.19;146597;679;47008;-68
2024/04/16 00:12:45;;;;;;;;;12.00;12.00;;;;;19.09;52.85;100551.28;146596;735;47010;-66
2024/04/16 00:15:46;;;;;;;;;15.00;14.00;;;;;19.09;53.04;100556.53;146599;570;46021;-68
2024/04/16 00:18:48;;;;;;;;;12.00;12.00;;;;;19.02;53.42;100549.44;146594;618;47010;-67
2024/04/16 00:21:46;;;;;;;;;14.00;12.50;;;;;18.92;53.82;100548.44;146599;575;46008;-66
2024/04/16 00:24:57;;;;;;;;;14.25;12.50;;;;;18.81;54.42;100536.88;146595;587;46010;-67
2024/04/16 00:28:06;;;;;;;;;14.25;12.25;;;;;18.68;54.46;100547.16;146596;627;47020;-66
2024/04/16 00:31:09;;;;;;;;;13.75;12.25;;;;;18.60;54.86;100538.28;146593;586;46017;-67
2024/04/16 00:34:11;;;;;;;;;14.50;14.00;;;;;18.54;55.54;100526.81;146596;588;47010;-66
2024/04/16 00:37:06;;;;;;;;;15.50;11.25;;;;;18.45;56.52;100520.53;146596;643;46017;-67
2024/04/16 00:40:06;;;;;;;;;16.50;14.75;;;;;18.37;55.97;100516.03;146597;569;47008;-66
2024/04/16 00:43:02;;;;;;;;;15.50;11.50;;;;;18.31;54.44;100516.81;146593;618;47010;-66
2024/04/16 00:46:10;;;;;;;;;14.00;10.25;;;;;18.27;52.85;100512.38;146599;577;46008;-67
2024/04/16 00:49:24;;;;;;;;;12.75;11.75;;;;;18.29;52.57;100508.03;146596;580;46016;-65
2024/04/16 00:52:29;;;;;;;;;14.75;12.25;;;;;18.35;53.14;100509.84;146595;651;47010;-66
2024/04/16 00:55:23;;;;;;;;;11.25;11.25;;;;;18.44;53.35;100504.75;146595;564;47010;-65
2024/04/16 00:58:22;;;;;;;;;13.25;12.00;;;;;18.50;52.48;100494.34;146596;575;47008;-66
2024/04/16 01:01:52;;;;;;;;;12.25;11.00;;;;;18.57;52.46;100497.97;146594;583;47017;-65
2024/04/16 01:04:50;;;;;;;;;11.25;10.75;;;;;18.62;52.59;100496.28;146598;634;46020;-65
2024/04/16 01:07:44;;;;;;;;;10.25;10.25;;;;;18.65;51.95;100496.34;146597;575;46010;-65
2024/04/16 01:10:50;;;;;;;;;10.00;9.00;;;;;18.63;50.88;100487.56;146600;596;46020;-65
2024/04/16 01:13:59;;;;;;;;;12.25;12.25;;;;;18.56;51.56;100469.94;146596;600;46016;-67
2024/04/16 01:17:07;;;;;;;;;11.50;11.25;;;;;17.80;52.26;100359.44;146599;604;46020;-67
2024/04/16 01:20:12;;;;;;;;;12.00;11.00;;;;;18.43;52.93;100467.13;146595;569;47010;-68
2024/04/16 01:23:28;;;;;;;;;12.00;11.50;;;;;17.07;51.45;100242.88;146597;579;47008;-67
2024/04/16 01:26:48;;;;;;;;;14.00;13.00;;;;;17.12;51.50;100255.19;146595;637;47016;-68
2024/04/16 01:29:43;;;;;;;;;15.50;14.75;;;;;18.39;52.50;100465.31;146598;595;47020;-67
2024/04/16 01:32:37;;;;;;;;;13.50;10.75;;;;;18.39;52.01;100467.94;146599;599;46016;-66
2024/04/16 01:35:36;;;;;;;;;11.00;10.75;;;;;18.36;52.24;100467.91;146596;600;46020;-66
2024/04/16 01:38:33;;;;;;;;;10.50;10.50;;;;;18.35;52.24;100458.28;146596;624;46910;-66
2024/04/16 01:41:29;;;;;;;;;12.75;11.75;;;;;18.33;51.94;100453.84;146597;657;46020;-67
2024/04/16 01:44:37;;;;;;;;;11.75;11.25;;;;;18.26;52.24;100447.63;146596;629;46016;-66
2024/04/16 01:47:46;;;;;;;;;;;;;;;;;;;;;
2024/04/16 01:50:41;;;;;;;;;16.00;13.00;;;;;18.14;52.33;100439.56;146595;583;47010;-67
2024/04/16 01:53:39;;;;;;;;;11.75;11.00;;;;;18.09;52.72;100436.84;146598;577;46026;-67
2024/04/16 01:56:37;;;;;;;;;12.50;11.25;;;;;18.08;51.98;100435.09;146593;602;47010;-66
2024/04/16 01:59:35;;;;;;;;;12.00;11.00;;;;;18.06;52.34;100442.03;146596;576;47008;-66
2024/04/16 02:02:30;;;;;;;;;15.50;14.75;;;;;18.05;52.11;100431.53;146593;587;47009;-67
2024/04/16 02:05:30;;;;;;;;;12.00;10.75;;;;;18.04;52.00;100440.25;146599;681;47008;-66
2024/04/16 02:08:35;;;;;;;;;13.75;13.25;;;;;18.01;51.83;100441.09;146595;644;46010;-66
2024/04/16 02:11:34;;;;;;;;;11.75;10.50;;;;;18.02;51.39;100445.47;146598;667;46020;-67
2024/04/16 02:14:40;;;;;;;;;16.25;13.00;;;;;17.98;53.57;100444.56;146595;575;47010;-66
2024/04/16 02:17:39;;;;;;;;;18.75;15.50;;;;;18.04;61.23;100451.66;146597;641;46008;-66
2024/04/16 02:20:39;;;;;;;;;18.00;17.75;;;;;18.23;62.93;100452.81;146595;704;47010;-68
2024/04/16 02:23:45;;;;;;;;;18.75;16.25;;;;;18.41;66.66;100453.13;146595;612;47020;-68
2024/04/16 02:27:07;;;;;;;;;18.25;15.50;;;;;18.62;64.60;100449.00;146593;569;47010;-67
2024/04/16 02:30:03;;;;;;;;;21.00;18.25;;;;;18.76;68.69;100450.13;146598;563;47020;-69
2024/04/16 02:32:58;;;;;;;;;21.50;18.00;;;;;18.89;67.03;100459.06;146594;605;47016;-68
2024/04/16 02:35:56;;;;;;;;;19.75;17.50;;;;;18.99;64.78;100458.31;146598;578;46915;-66
2024/04/16 02:38:53;;;;;;;;;19.50;15.75;;;;;19.05;67.17;100463.63;146596;614;47010;-67
2024/04/16 02:41:54;;;;;;;;;19.25;15.75;;;;;19.09;64.27;100467.19;146599;624;46008;-66
2024/04/16 02:44:55;;;;;;;;;14.00;13.00;;;;;19.17;61.32;100470.81;146594;581;47909;-67
2024/04/16 02:47:50;;;;;;;;;17.25;15.00;;;;;19.23;61.87;100460.37;146600;625;46020;-66
2024/04/16 02:51:14;;;;;;;;;15.25;15.00;;;;;19.30;61.73;100459.56;146592;622;46037;-65
2024/04/16 02:54:14;;;;;;;;;18.50;15.50;;;;;19.37;62.23;100460.50;146599;577;47008;-67
2024/04/16 02:57:33;;;;;;;;;17.50;15.25;;;;;19.42;63.00;100456.19;146594;575;47010;-68
2024/04/16 03:00:28;;;;;;;;;16.25;14.00;;;;;19.45;64.45;100460.59;146599;634;46020;-67
2024/04/16 03:03:23;;;;;;;;;16.75;16.75;;;;;19.43;65.48;100451.81;146595;579;46010;-67
2024/04/16 03:06:23;;;;;;;;;17.00;16.00;;;;;19.39;64.64;100458.78;146594;627;47020;-68
2024/04/16 03:09:27;;;;;;;;;20.50;18.75;;;;;19.38;62.85;100455.28;146597;650;46017;-69
2024/04/16 03:12:34;;;;;;;;;18.75;17.00;;;;;19.39;64.94;100451.78;146598;611;46020;-65
2024/04/16 03:15:34;;;;;;;;;15.75;15.50;;;;;19.38;63.32;100457.91;146594;578;47010;-65
2024/04/16 03:18:34;;;;;;;;;18.75;16.75;;;;;19.33;63.13;100459.59;146594;585;48008;-66
2024/04/16 03:21:32;;;;;;;;;15.75;14.50;;;;;19.24;64.54;100451.59;146590;564;48909;-66
2024/04/16 03:24:39;;;;;;;;;16.50;14.00;;;;;19.09;62.03;100451.41;146597;574;47008;-66
2024/04/16 03:27:44;;;;;;;;;12.00;12.00;;;;;18.96;59.82;100454.75;146595;595;46909;-68
2024/04/16 03:31:06;;;;;;;;;12.75;9.00;;;;;18.83;59.22;100459.84;146595;579;46021;-69
2024/04/16 03:34:11;;;;;;;;;14.00;12.50;;;;;18.71;58.48;100464.91;146595;574;47016;-68
2024/04/16 03:37:04;;;;;;;;;12.25;11.25;;;;;18.67;59.02;100473.63;146599;699;47010;-68
2024/04/16 03:40:05;;;;;;;;;15.25;12.00;;;;;18.63;58.61;100471.81;146596;571;47010;-69
2024/04/16 03:43:00;;;;;;;;;13.00;11.00;;;;;18.51;57.68;100469.88;146598;566;47008;-68
2024/04/16 03:46:13;;;;;;;;;;;;;;;;;;;;;
2024/04/16 03:49:19;;;;;;;;;11.75;10.75;;;;;18.19;56.09;100479.84;146600;575;46912;-68
2024/04/16 03:52:37;;;;;;;;;;;;;;;;;;;;;
2024/04/16 03:55:35;;;;;;;;;10.25;10.25;;;;;17.96;55.15;100479.47;146600;627;47008;-70
2024/04/16 03:58:33;;;;;;;;;10.00;9.00;;;;;17.85;55.38;100487.19;146599;684;46029;-69
2024/04/16 04:01:38;;;;;;;;;8.75;7.75;;;;;17.81;54.26;100487.97;146598;610;47021;-70
2024/04/16 04:04:39;;;;;;;;;9.75;9.00;;;;;17.78;55.24;100490.53;146592;693;47012;-71
2024/04/16 04:07:51;;;;;;;;;8.50;8.25;;;;;17.76;54.46;100492.22;146596;629;47008;-71
2024/04/16 04:11:08;;;;;;;;;9.50;8.75;;;;;17.72;54.37;100508.72;146596;711;47018;-70
2024/04/16 04:14:09;;;;;;;;;9.50;8.25;;;;;17.64;55.23;100492.00;146599;672;46008;-67
2024/04/16 04:17:05;;;;;;;;;11.00;9.00;;;;;17.58;55.57;100482.28;146594;566;46912;-67
2024/04/16 04:20:08;;;;;;;;;11.50;9.25;;;;;17.58;56.15;100478.78;146599;597;47008;-67
2024/04/16 04:23:16;;;;;;;;;10.50;10.50;;;;;17.65;55.80;100475.41;146590;569;48012;-67
2024/04/16 04:26:16;;;;;;;;;10.75;9.75;;;;;17.76;55.93;100485.22;146601;581;46020;-67
2024/04/16 04:29:17;;;;;;;;;11.00;10.00;;;;;17.88;54.44;100489.84;146595;635;47016;-68
2024/04/16 04:32:13;;;;;;;;;9.00;8.25;;;;;18.00;53.36;100489.16;146599;670;46021;-70
2024/04/16 04:35:16;;;;;;;;;8.50;8.25;;;;;18.09;53.01;100486.69;146598;579;46016;-69
2024/04/16 04:38:14;;;;;;;;;7.75;7.00;;;;;18.20;52.83;100487.78;146600;566;46021;-66
2024/04/16 04:41:24;;;;;;;;;;;;;;;;;;;;;
2024/04/16 04:44:17;;;;;;;;;12.25;9.00;;;;;18.33;52.16;100483.59;146599;677;46020;-70
2024/04/16 04:47:13;;;;;;;;;9.25;7.25;;;;;18.33;52.96;100482.72;146596;720;47010;-66
2024/04/16 04:50:07;;;;;;;;;11.00;9.25;;;;;18.38;53.72;100481.03;146599;569;46020;-66
2024/04/16 04:53:05;;;;;;;;;8.50;8.50;;;;;18.53;54.54;100480.38;146597;688;46017;-67
2024/04/16 04:56:02;;;;;;;;;12.25;9.75;;;;;18.72;54.62;100492.94;146598;571;46020;-67
2024/04/16 04:59:02;;;;;;;;;14.50;12.50;;;;;18.91;54.79;100492.38;146597;580;46911;-71
2024/04/16 05:01:59;;;;;;;;;11.00;8.25;;;;;19.11;54.38;100497.87;146600;566;46008;-69
2024/04/16 05:05:08;;;;;;;;;13.25;10.50;;;;;19.34;54.08;100487.63;146597;570;46016;-68
2024/04/16 05:08:04;;;;;;;;;12.00;9.00;;;;;19.54;55.32;100480.00;146600;613;46021;-70
2024/04/16 05:11:22;;;;;;;;;13.50;12.25;;;;;18.62;52.46;100281.84;146598;714;46016;-70
2024/04/16 05:14:40;;;;;;;;;14.00;11.00;;;;;18.70;51.75;100255.66;146597;693;46021;-70
2024/04/16 05:17:48;;;;;;;;;13.75;11.00;;;;;20.16;53.38;100475.34;146598;691;46016;-72
2024/04/16 05:20:58;;;;;;;;;11.75;10.75;;;;;20.41;52.52;100469.41;146598;639;47008;-73
2024/04/16 05:24:05;;;;;;;;;13.00;11.25;;;;;20.64;52.63;100466.94;146593;683;47010;-72
2024/04/16 05:27:00;;;;;;;;;10.00;10.00;;;;;20.86;52.85;100464.44;146598;606;47008;-72
2024/04/16 05:30:03;;;;;;;;;14.00;12.75;;;;;21.01;52.46;100461.00;146594;582;46017;-72
2024/04/16 05:33:07;;;;;;;;;10.00;10.00;;;;;21.16;52.89;100455.78;146598;699;47008;-71
2024/04/16 05:36:23;;;;;;;;;15.75;11.50;;;;;21.37;52.38;100453.25;146593;625;47016;-73
2024/04/16 05:39:32;;;;;;;;;14.00;12.25;;;;;21.58;51.56;100451.53;146599;579;46020;-71
2024/04/16 05:42:38;;;;;;;;;13.25;12.00;;;;;20.64;50.24;100237.75;146596;639;47010;-71
2024/04/16 05:45:30;;;;;;;;;14.00;13.00;;;;;21.96;50.98;100435.72;146600;564;47008;-70
2024/04/16 05:48:46;;;;;;;;;15.25;14.00;;;;;21.22;49.67;100271.22;146592;610;47008;-69
2024/04/16 05:51:51;;;;;;;;;28.75;24.75;;;;;22.41;49.13;100427.81;146596;564;47022;-70
2024/04/16 05:55:06;;;;;;;;;23.75;22.00;;;;;22.64;48.79;100431.25;146593;610;48016;-71
2024/04/16 05:58:18;;;;;;;;;;;;;;;;;;;;;
2024/04/16 06:01:16;;;;;;;;;28.25;26.75;;;;;23.03;47.80;100419.72;146592;586;48010;-71
2024/04/16 06:04:44;;;;;;;;;29.75;25.50;;;;;23.21;47.04;100423.16;146598;623;46913;-71
2024/04/16 06:07:45;;;;;;;;;24.50;23.50;;;;;23.38;46.88;100423.94;146591;597;47010;-71
2024/04/16 06:10:47;;;;;;;;;19.75;19.50;;;;;23.43;46.47;100424.78;146597;579;47008;-71
2024/04/16 06:14:06;;;;;;;;;18.50;17.50;;;;;22.26;46.95;100222.72;146596;645;46011;-70
2024/04/16 06:17:12;;;;;;;;;20.25;19.00;;;;;23.58;46.39;100412.31;146598;598;46020;-71
2024/04/16 06:20:11;;;;;;;;;24.25;23.25;;;;;23.75;45.99;100423.72;146597;565;46010;-70
2024/04/16 06:23:13;;;;;;;;;18.00;16.00;;;;;23.93;47.49;100422.69;146599;653;46911;-73
2024/04/16 06:26:17;;;;;;;;;15.75;13.00;;;;;24.13;44.84;100427.81;146594;569;48010;-72
2024/04/16 06:29:24;;;;;;;;;13.25;12.25;;;;;24.25;43.21;100433.00;146594;574;47020;-72
2024/04/16 06:32:19;;;;;;;;;16.75;15.50;;;;;24.35;43.20;100423.19;146596;581;47010;-73
2024/04/16 06:35:21;;;;;;;;;39.25;33.00;;;;;24.45;43.10;100421.34;146598;706;46021;-74
2024/04/16 06:38:29;;;;;;;;;45.00;35.75;;;;;24.46;43.28;100412.53;146593;578;47010;-74
2024/04/16 06:41:28;;;;;;;;;41.25;35.00;;;;;24.40;44.58;100403.69;146597;582;47008;-75
2024/04/16 06:44:22;;;;;;;;;37.25;32.50;;;;;24.46;43.38;100405.44;146593;566;47010;-73
2024/04/16 06:47:30;;;;;;;;;25.00;22.50;;;;;24.59;44.10;100403.53;146597;608;47020;-76
2024/04/16 06:50:32;;;;;;;;;22.25;20.50;;;;;24.65;44.84;100400.81;146594;578;47010;-74
2024/04/16 06:53:37;;;;;;;;;28.50;26.75;;;;;24.79;44.45;100411.25;146597;631;47020;-70
2024/04/16 06:56:46;;;;;;;;;23.75;23.25;;;;;24.88;44.68;100411.13;146597;602;46016;-72
2024/04/16 06:59:44;;;;;;;;;19.00;18.25;;;;;25.00;44.32;100413.63;146596;614;46021;-73
2024/04/16 07:02:40;;;;;;;;;16.75;14.25;;;;;25.04;41.76;100414.47;146594;584;47010;-77
2024/04/16 07:05:46;;;;;;;;;22.75;20.00;;;;;25.00;43.24;100418.06;146597;627;46020;-75
2024/04/16 07:09:05;;;;;;;;;20.25;17.50;;;;;23.83;41.56;100248.91;146595;563;46913;-74
2024/04/16 07:11:58;;;;;;;;;18.75;16.50;;;;;24.75;42.32;100421.00;146595;633;47022;-73
2024/04/16 07:15:12;;;;;;;;;19.00;18.50;;;;;24.74;41.38;100419.28;146594;589;47010;-77
2024/04/16 07:18:15;;;;;;;;;17.25;15.75;;;;;24.82;40.27;100413.87;146598;609;46020;-74
2024/04/16 07:21:20;;;;;;;;;17.75;14.50;;;;;24.91;40.17;100404.91;146596;661;47011;-73
2024/04/16 07:24:16;;;;;;;;;17.75;15.00;;;;;24.97;38.99;100407.50;146593;608;47020;-73
2024/04/16 07:27:22;;;;;;;;;19.75;16.50;;;;;25.03;39.14;100405.63;146596;581;46017;-79
2024/04/16 07:30:27;;;;;;;;;20.00;19.00;;;;;25.08;39.69;100398.50;146595;566;47028;-72
2024/04/16 07:33:23;;;;;;;;;25.25;18.50;;;;;25.16;38.24;100403.72;146619;587;46010;-75
2024/04/16 07:36:29;;;;;;;;;20.75;19.00;;;;;25.26;39.93;100397.38;146624;643;46021;-72
2024/04/16 07:39:46;;;;;;;;;20.25;16.50;;;;;24.45;38.18;100222.59;146624;572;45913;-73
2024/04/16 07:43:03;;;;;;;;;;;;;;;;;;;;;
2024/04/16 08:35:44;;;;;;;;;16.00;15.00;;;;;27.41;37.12;100388.12;146637;571;46022;-77
2024/04/16 08:38:42;;;;;;;;;14.00;14.00;;;;;27.60;35.30;100394.78;146618;582;46012;-77
2024/04/16 08:41:39;;;;;;;;;12.00;12.00;;;;;27.82;35.88;100373.84;146612;702;46020;-78
2024/04/16 08:44:59;;;;;;;;;16.00;14.00;;;;;28.09;35.16;100361.56;146612;705;47044;-78
2024/04/16 08:48:01;;;;;;;;;13.25;12.25;;;;;28.30;34.48;100356.59;146618;627;47027;-77
2024/04/16 08:51:05;;;;;;;;;17.25;13.50;;;;;28.44;33.12;100357.12;146611;622;47016;-78
2024/04/16 08:54:09;;;;;;;;;10.75;10.75;;;;;28.52;36.06;100357.75;146614;607;47008;-76
2024/04/16 08:57:04;;;;;;;;;12.00;12.00;;;;;28.53;34.38;100353.31;146614;565;46912;-78
2024/04/16 09:00:14;;;;;;;;;12.00;11.50;;;;;28.46;34.64;100349.94;146617;670;47008;-78
2024/04/16 09:03:29;;;;;;;;;12.00;10.00;;;;;28.38;33.76;100335.94;146616;595;46016;-77
2024/04/16 09:06:32;;;;;;;;;14.50;14.00;;;;;28.33;33.72;100346.72;146612;693;48008;-79
2024/04/16 09:09:40;;;;;;;;;11.75;10.00;;;;;28.29;34.28;100344.19;146617;583;47010;-82
2024/04/16 09:12:38;;;;;;;;;14.50;13.50;;;;;28.30;33.00;100329.94;146614;623;47008;-79
2024/04/16 09:15:37;;;;;;;;;16.00;13.25;;;;;28.23;32.68;100333.69;146616;583;46016;-79
2024/04/16 09:18:31;;;;;;;;;15.00;13.75;;;;;28.08;31.71;100325.19;146612;565;46020;-78
2024/04/16 09:21:39;;;;;;;;;14.25;12.50;;;;;28.04;32.40;100322.66;146613;599;46017;-83
2024/04/16 09:24:37;;;;;;;;;12.50;11.25;;;;;27.96;30.21;100316.66;146616;675;46020;-82
2024/04/16 09:27:38;;;;;;;;;13.00;12.00;;;;;27.92;31.96;100315.88;146614;690;46016;-81
2024/04/16 09:30:38;;;;;;;;;14.50;12.50;;;;;27.94;31.85;100311.34;146618;570;45021;-75
2024/04/16 09:33:49;;;;;;;;;14.25;10.75;;;;;28.00;33.33;100319.19;146613;707;46028;-79
2024/04/16 09:36:51;;;;;;;;;11.67;10.67;;;;;28.07;35.13;100322.59;146620;690;46008;-79
2024/04/16 09:40:06;;;;;;;;;8.25;6.50;;;;;28.14;32.55;100331.28;146612;685;47012;-80
2024/04/16 09:43:20;;;;;;;;;11.00;10.00;;;;;27.84;28.86;100272.56;146622;584;46021;-83
2024/04/16 09:46:16;;;;;;;;;10.00;10.00;;;;;28.21;30.78;100328.37;146615;655;46916;-78
2024/04/16 09:49:22;;;;;;;;;13.25;13.00;;;;;28.26;31.24;100328.28;146617;571;47008;-81
2024/04/16 09:52:24;;;;;;;;;14.00;14.00;;;;;28.24;28.89;100328.31;146611;610;47010;-76
2024/04/16 09:55:21;;;;;;;;;13.00;12.25;;;;;28.16;29.66;100318.75;146619;723;46008;-79
2024/04/16 09:58:17;;;;;;;;;13.50;13.25;;;;;28.02;29.94;100322.69;146614;583;46017;-80
2024/04/16 10:01:24;;;;;;;;;12.25;12.00;;;;;27.99;30.97;100314.78;146618;688;46008;-79
2024/04/16 10:04:47;;;;;;;;;12.00;12.00;;;;;28.03;32.02;100324.44;146614;724;47010;-78
2024/04/16 10:07:46;;;;;;;;;12.25;11.50;;;;;27.96;29.88;100319.31;146616;578;48006;-81
2024/04/16 10:11:02;;;;;;;;;13.50;12.00;;;;;27.86;30.86;100319.56;146613;622;46016;-79
2024/04/16 10:14:00;;;;;;;;;13.00;12.50;;;;;27.60;30.25;100306.91;146617;626;46021;-78
2024/04/16 10:17:11;;;;;;;;;13.75;13.25;;;;;27.45;33.57;100296.62;146611;621;46040;-77
2024/04/16 10:20:23;;;;;;;;;14.00;12.50;;;;;27.42;30.40;100290.50;146614;577;46008;-82
2024/04/16 10:23:41;;;;;;;;;14.75;12.75;;;;;27.52;31.81;100287.56;146611;601;47012;-84
2024/04/16 10:26:43;;;;;;;;;12.00;10.00;;;;;27.64;29.89;100295.25;146618;568;46020;-77
2024/04/16 10:29:42;;;;;;;;;10.50;8.25;;;;;27.62;30.75;100280.22;146614;613;46016;-79
2024/04/16 10:32:49;;;;;;;;;14.75;13.00;;;;;27.55;30.63;100282.16;146616;592;46020;-84
2024/04/16 10:36:11;;;;;;;;;12.25;11.75;;;;;27.53;32.04;100272.47;146628;606;45911;-82
2024/04/16 10:39:23;;;;;;;;;13.50;12.75;;;;;27.50;33.84;100265.41;146633;673;45022;-84
2024/04/16 10:42:22;;;;;;;;;14.50;13.50;;;;;27.49;31.60;100255.69;146630;566;45909;-78
2024/04/16 10:45:47;;;;;;;;;12.75;10.00;;;;;27.36;31.75;100201.88;146633;573;45020;-79
2024/04/16 10:48:49;;;;;;;;;12.00;11.50;;;;;27.80;30.37;100250.47;146630;572;46010;-78
2024/04/16 10:51:48;;;;;;;;;12.25;11.75;;;;;27.90;31.72;100243.06;146635;591;45021;-80
2024/04/16 10:54:53;;;;;;;;;11.00;11.00;;;;;27.90;29.52;100252.88;146634;662;45910;-82
2024/04/16 10:57:49;;;;;;;;;12.50;11.25;;;;;28.00;30.80;100235.69;146635;641;46008;-74
2024/04/16 11:00:56;;;;;;;;;14.25;12.50;;;;;28.02;30.68;100240.06;146630;632;46010;-79
2024/04/16 11:04:10;;;;;;;;;11.00;10.00;;;;;28.09;28.15;100224.78;146631;651;46020;-80
2024/04/16 11:07:14;;;;;;;;;13.50;11.50;;;;;28.19;26.74;100220.03;146629;591;45016;-79
2024/04/16 11:10:22;;;;;;;;;9.75;9.75;;;;;28.24;28.29;100215.47;146629;639;46020;-80
2024/04/16 11:13:20;;;;;;;;;11.00;9.00;;;;;28.22;26.43;100204.84;146637;626;45913;-78
2024/04/16 11:16:19;;;;;;;;;9.33;7.33;;;;;28.18;27.66;100219.19;146642;608;45020;-78
2024/04/16 11:19:16;;;;;;;;;8.50;8.50;;;;;28.15;27.56;100213.94;146633;637;46011;-79
2024/04/16 11:22:11;;;;;;;;;10.00;9.00;;;;;28.33;29.60;100209.87;146641;654;45914;-79
2024/04/16 11:25:23;;;;;;;;;11.50;9.25;;;;;28.57;30.79;100205.63;146634;667;45911;-79
2024/04/16 11:28:21;;;;;;;;;9.00;9.00;;;;;28.76;27.88;100206.78;146640;590;46008;-81
2024/04/16 11:31:25;;;;;;;;;10.25;9.00;;;;;28.92;29.25;100211.62;146634;573;45912;-77
2024/04/16 11:37:13;;;;;;;;;10.33;9.00;;;;;29.11;28.84;100206.56;146618;569;46016;-79
2024/04/16 11:40:20;;;;;;;;;7.33;7.00;;;;;29.03;30.43;100157.91;146622;575;46020;-80
2024/04/16 11:43:20;;;;;;;;;8.00;7.00;;;;;29.48;25.36;100198.19;146617;624;46016;-86
2024/04/16 11:46:15;;;;;;;;;8.00;7.67;;;;;29.42;26.71;100198.38;146620;590;46020;-79
2024/04/16 11:49:10;;;;;;;;;5.00;4.67;;;;;29.32;26.36;100204.97;146616;575;46017;-80
2024/04/16 11:52:25;;;;;;;;;8.33;8.00;;;;;29.18;26.39;100197.41;146623;564;48008;-79
2024/04/16 11:55:30;;;;;;;;;7.00;7.00;;;;;28.88;24.60;100113.88;146617;622;46016;-81
2024/04/16 11:58:31;;;;;;;;;9.67;7.33;;;;;29.24;25.53;100167.84;146619;569;46021;-82
2024/04/16 12:01:31;;;;;;;;;8.33;8.33;;;;;29.22;28.14;100170.59;146619;596;47010;-79
2024/04/16 12:04:23;;;;;;;;;10.00;8.00;;;;;29.27;28.07;100158.87;146620;573;46021;-80
2024/04/16 12:07:20;;;;;;;;;6.00;6.00;;;;;29.40;25.17;100150.34;146617;601;46027;-84
2024/04/16 12:10:20;;;;;;;;;6.67;5.00;;;;;29.44;22.90;100146.66;146620;567;46020;-81
2024/04/16 12:13:21;;;;;;;;;6.33;6.00;;;;;29.43;24.17;100150.25;146617;612;46016;-82
2024/04/16 12:16:26;;;;;;;;;5.67;5.67;;;;;29.35;24.17;100138.13;146623;647;46008;-80
2024/04/16 12:19:21;;;;;;;;;6.00;5.33;;;;;29.33;22.52;100130.12;146619;622;47010;-86
2024/04/16 12:22:22;;;;;;;;;6.67;6.33;;;;;29.37;25.92;100131.75;146622;600;46008;-81
2024/04/16 12:25:17;;;;;;;;;7.00;6.00;;;;;29.49;22.96;100110.91;146618;625;46911;-81
2024/04/16 12:28:18;;;;;;;;;6.00;5.00;;;;;29.54;24.26;100100.94;146624;651;46020;-79
2024/04/16 12:31:11;;;;;;;;;10.00;8.67;;;;;29.58;23.94;100102.53;146619;638;46028;-80
2024/04/16 12:34:12;;;;;;;;;6.67;6.67;;;;;29.60;24.88;100095.34;146622;583;47021;-81
2024/04/16 12:37:21;;;;;;;;;7.00;7.00;;;;;29.65;23.19;100077.37;146618;621;47010;-79
2024/04/16 12:40:18;;;;;;;;;6.33;6.00;;;;;29.68;24.58;100063.87;146625;634;46021;-80
2024/04/16 12:43:15;;;;;;;;;8.33;8.33;;;;;29.70;23.24;100051.34;146618;652;47010;-81
2024/04/16 12:46:25;;;;;;;;;8.33;5.67;;;;;29.83;23.66;100041.06;146620;577;46020;-81
2024/04/16 12:49:28;;;;;;;;;6.00;6.00;;;;;29.88;24.58;100039.09;146614;659;46037;-84
2024/04/16 12:52:32;;;;;;;;;7.00;6.67;;;;;29.92;22.39;100014.84;146622;645;46008;-76
2024/04/16 12:55:31;;;;;;;;;3.67;3.00;;;;;29.91;21.02;100006.91;146618;585;46029;-78
2024/04/16 12:58:52;;;;;;;;;6.67;6.67;;;;;29.87;25.80;100010.59;146622;630;46008;-78
2024/04/16 13:01:51;;;;;;;;;5.00;4.00;;;;;29.86;22.77;100014.22;146613;579;47016;-76
2024/04/16 13:04:54;;;;;;;;;8.00;6.33;;;;;29.82;22.50;100001.91;146624;593;46008;-78
2024/04/16 13:08:08;;;;;;;;;5.33;5.33;;;;;29.81;23.49;100001.00;146620;569;46911;-75
2024/04/16 13:11:14;;;;;;;;;6.00;5.00;;;;;29.80;24.68;100003.75;146624;570;46021;-77
2024/04/16 13:14:15;;;;;;;;;5.67;5.00;;;;;29.79;24.42;99999.38;146620;601;47010;-76
2024/04/16 13:17:11;;;;;;;;;5.67;5.67;;;;;29.77;23.75;99999.41;146624;595;46009;-79
2024/04/16 13:20:18;;;;;;;;;8.67;7.33;;;;;29.68;25.03;100005.12;146621;576;46010;-79
2024/04/16 13:23:32;;;;;;;;;6.67;5.00;;;;;29.00;26.13;99887.50;146619;624;46020;-81
2024/04/16 13:26:25;;;;;;;;;7.33;6.00;;;;;29.56;25.41;99978.84;146617;592;46016;-78
2024/04/16 13:29:46;;;;;;;;;6.67;6.67;;;;;29.54;26.54;99984.25;146624;611;46008;-80
2024/04/16 13:32:41;;;;;;;;;8.00;7.00;;;;;29.53;24.61;99986.97;146617;607;46016;-80
2024/04/16 13:35:42;;;;;;;;;9.00;7.67;;;;;29.56;25.44;99979.69;146621;611;46020;-77
2024/04/16 13:38:55;;;;;;;;;8.67;6.67;;;;;29.04;24.82;99879.41;146616;566;47013;-82
2024/04/16 13:41:49;;;;;;;;;8.00;7.00;;;;;29.51;24.58;99965.69;146621;575;48008;-80
2024/04/16 13:44:49;;;;;;;;;9.00;7.00;;;;;29.40;24.22;99968.75;146620;564;46031;-79
2024/04/16 13:48:00;;;;;;;;;8.67;8.00;;;;;28.97;26.58;99908.97;146623;566;46020;-78
2024/04/16 13:50:54;;;;;;;;;9.00;8.33;;;;;29.18;24.74;99973.16;146619;596;46913;-79
2024/04/16 13:53:57;;;;;;;;;7.00;7.00;;;;;29.16;26.19;99977.69;146620;581;46020;-78
2024/04/16 13:56:57;;;;;;;;;7.67;7.00;;;;;29.11;25.93;99977.87;146620;595;46016;-76
2024/04/16 14:00:20;;;;;;;;;7.67;6.33;;;;;28.79;27.69;99922.97;146621;640;47010;-77
2024/04/16 14:03:17;;;;;;;;;7.33;7.00;;;;;29.07;26.15;99957.56;146618;565;47010;-74
2024/04/16 14:06:18;;;;;;;;;9.33;6.67;;;;;29.01;26.04;99971.13;146618;600;46020;-72
2024/04/16 14:09:09;;;;;;;;;9.33;8.00;;;;;28.97;26.92;99962.34;146616;653;47010;-73
2024/04/16 14:12:10;;;;;;;;;8.00;7.00;;;;;28.95;26.25;99964.19;146621;637;46008;-72
2024/04/16 14:15:11;;;;;;;;;8.75;8.50;;;;;28.94;26.81;99958.88;146618;702;46913;-72
2024/04/16 14:18:12;;;;;;;;;8.00;7.00;;;;;28.89;26.76;99959.06;146620;570;47008;-78
2024/04/16 14:21:15;;;;;;;;;10.00;9.33;;;;;28.84;26.31;99962.81;146617;648;46016;-80
2024/04/16 14:24:12;;;;;;;;;10.67;9.00;;;;;28.79;26.67;99957.66;146617;569;46008;-82
2024/04/16 14:27:24;;;;;;;;;9.67;8.67;;;;;28.79;28.15;99952.34;146618;666;46016;-82
2024/04/16 14:30:21;;;;;;;;;10.33;9.67;;;;;28.78;27.25;99947.91;146622;565;47008;-79
2024/04/16 14:33:30;;;;;;;;;11.33;8.00;;;;;28.72;26.06;99951.69;146618;614;47010;-84
2024/04/16 14:36:33;;;;;;;;;8.75;7.75;;;;;28.64;26.49;99956.41;146622;658;46020;-79
2024/04/16 14:39:26;;;;;;;;;11.75;8.75;;;;;28.54;26.98;99950.53;146615;564;46017;-76
2024/04/16 14:42:28;;;;;;;;;9.50;8.25;;;;;28.47;27.61;99942.78;146622;633;46008;-75
2024/04/16 14:45:27;;;;;;;;;7.33;7.33;;;;;28.38;28.45;99946.63;146619;584;46010;-75
2024/04/16 14:48:26;;;;;;;;;11.00;9.75;;;;;28.32;28.62;99936.19;146621;593;46010;-83
2024/04/16 14:51:31;;;;;;;;;8.50;8.50;;;;;27.91;29.71;99870.94;146618;639;46010;-78
2024/04/16 14:54:37;;;;;;;;;6.75;6.00;;;;;28.15;30.14;99935.88;146618;710;47020;-86
2024/04/16 14:57:46;;;;;;;;;10.67;8.33;;;;;27.92;31.28;99933.97;146618;602;46016;-81
2024/04/16 15:01:14;;;;;;;;;10.75;8.75;;;;;27.36;32.89;99881.56;146619;570;46020;-80
2024/04/16 15:04:10;;;;;;;;;12.67;10.00;;;;;27.34;32.94;99936.62;146617;588;46031;-77
2024/04/16 15:07:11;;;;;;;;;12.50;12.25;;;;;27.18;34.11;99934.41;146616;575;47008;-72